createdAt,value
2022-09-12T00:01:40.915Z,99.90
2022-09-12T00:04:12.051Z,99.90
2022-09-12T00:06:43.562Z,99.90
2022-09-12T00:09:15.414Z,99.90
2022-09-12T00:11:48.194Z,99.90
2022-09-12T00:14:20.693Z,99.90
2022-09-12T00:16:49.952Z,99.90
2022-09-12T00:19:19.197Z,99.90
2022-09-12T00:21:49.679Z,99.90
2022-09-12T00:24:18.847Z,99.90
2022-09-12T00:26:47.798Z,99.90
2022-09-12T00:29:19.476Z,99.90
2022-09-12T00:31:49.175Z,99.90
2022-09-12T00:34:18.390Z,99.90
2022-09-12T00:36:48.719Z,99.90
2022-09-12T00:39:19.877Z,99.90
2022-09-12T00:41:49.018Z,99.90
2022-09-12T00:44:52.315Z,99.90
2022-09-12T00:47:31.070Z,99.90
2022-09-12T00:50:10.119Z,99.90
2022-09-12T00:52:48.234Z,99.90
2022-09-12T00:55:21.236Z,99.90
2022-09-12T00:58:01.721Z,99.90
2022-09-12T01:00:36.175Z,99.90
2022-09-12T01:03:10.879Z,99.90
2022-09-12T01:05:46.783Z,99.90
2022-09-12T01:08:18.914Z,99.90
2022-09-12T01:10:48.938Z,99.90
2022-09-12T01:13:18.257Z,99.90
2022-09-12T01:15:47.182Z,99.90
2022-09-12T01:18:26.858Z,99.90
2022-09-12T01:21:24.854Z,99.90
2022-09-12T01:24:38.980Z,99.90
2022-09-12T01:27:41.694Z,99.90
2022-09-12T01:30:46.765Z,99.90
2022-09-12T01:33:51.620Z,99.90
2022-09-12T01:36:39.434Z,99.90
2022-09-12T01:39:22.230Z,99.90
2022-09-12T01:42:03.712Z,99.90
2022-09-12T01:44:45.096Z,99.90
2022-09-12T01:47:24.364Z,99.90
2022-09-12T01:50:04.324Z,99.90
2022-09-12T01:52:40.727Z,99.90
2022-09-12T01:55:18.136Z,99.90
2022-09-12T01:57:56.605Z,99.90
2022-09-12T02:00:26.145Z,99.90
2022-09-12T02:03:02.914Z,99.90
2022-09-12T02:05:38.177Z,99.90
2022-09-12T02:08:14.402Z,99.90
2022-09-12T02:10:50.748Z,99.90
2022-09-12T02:13:28.411Z,99.90
2022-09-12T02:16:05.365Z,99.90
2022-09-12T02:18:38.527Z,99.90
2022-09-12T02:21:09.199Z,99.90
2022-09-12T02:23:49.920Z,99.90
2022-09-12T02:26:25.981Z,99.90
2022-09-12T02:28:54.933Z,99.90
2022-09-12T02:31:31.049Z,99.90
2022-09-12T02:34:15.278Z,99.90
2022-09-12T02:36:54.762Z,99.90
2022-09-12T02:39:23.980Z,99.90
2022-09-12T02:41:55.833Z,99.90
2022-09-12T02:44:28.612Z,99.90
2022-09-12T02:47:04.627Z,99.90
2022-09-12T02:49:35.467Z,99.90
2022-09-12T02:52:05.606Z,99.90
2022-09-12T02:54:34.943Z,99.90
2022-09-12T02:57:03.920Z,99.90
2022-09-12T02:59:33.699Z,99.90
2022-09-12T03:02:24.412Z,99.90
2022-09-12T03:05:22.298Z,99.90
2022-09-12T03:08:35.506Z,99.90
2022-09-12T03:11:23.010Z,99.90
2022-09-12T03:14:07.334Z,99.90
2022-09-12T03:16:54.951Z,99.90
2022-09-12T03:19:34.629Z,99.90
2022-09-12T03:22:17.307Z,99.90
2022-09-12T03:25:01.637Z,99.90
2022-09-12T03:27:36.531Z,99.90
2022-09-12T03:30:08.302Z,99.90
2022-09-12T03:32:48.367Z,99.90
2022-09-12T03:35:22.962Z,99.90
2022-09-12T03:37:54.473Z,99.90
2022-09-12T03:40:23.577Z,99.90
2022-09-12T03:42:52.443Z,99.90
2022-09-12T03:45:21.482Z,99.90
2022-09-12T03:47:50.339Z,99.90
2022-09-12T03:50:19.633Z,99.90
2022-09-12T03:52:48.576Z,99.90
2022-09-12T03:55:19.416Z,99.90
2022-09-12T03:57:48.414Z,99.90
2022-09-12T04:00:19.817Z,99.90
2022-09-12T04:02:49.104Z,99.90
2022-09-12T04:05:18.182Z,99.90
2022-09-12T04:07:47.143Z,99.90
2022-09-12T04:10:17.626Z,99.90
2022-09-12T04:12:46.751Z,99.90
2022-09-12T04:15:15.969Z,99.90
2022-09-12T04:17:44.956Z,99.90
2022-09-12T04:20:13.949Z,99.90
2022-09-12T04:22:42.895Z,99.90
2022-09-12T04:25:13.442Z,99.90
2022-09-12T04:27:43.800Z,99.90
2022-09-12T04:30:14.129Z,99.90
2022-09-12T04:32:42.944Z,99.90
2022-09-12T04:35:12.978Z,99.90
2022-09-12T04:37:41.892Z,99.90
2022-09-12T04:40:11.802Z,99.90
2022-09-12T04:42:42.265Z,99.90
2022-09-12T04:45:13.146Z,99.90
2022-09-12T04:47:42.347Z,99.90
2022-09-12T04:50:11.659Z,99.90
2022-09-12T04:52:40.541Z,99.90
2022-09-12T04:55:10.952Z,99.90
2022-09-12T04:57:39.915Z,99.90
2022-09-12T05:00:14.620Z,99.90
2022-09-12T05:02:43.946Z,99.90
2022-09-12T05:05:12.836Z,99.90
2022-09-12T05:07:42.133Z,99.90
2022-09-12T05:10:12.834Z,99.90
2022-09-12T05:12:41.742Z,99.90
2022-09-12T05:15:13.041Z,99.90
2022-09-12T05:17:41.898Z,99.90
2022-09-12T05:20:12.937Z,99.90
2022-09-12T05:22:42.187Z,99.90
2022-09-12T05:25:11.976Z,99.90
2022-09-12T05:27:40.839Z,99.90
2022-09-12T05:30:13.571Z,99.90
2022-09-12T05:32:42.467Z,99.90
2022-09-12T05:35:12.264Z,99.90
2022-09-12T05:37:41.170Z,99.90
2022-09-12T05:40:11.363Z,99.90
2022-09-12T05:42:40.238Z,99.90
2022-09-12T05:45:11.515Z,99.90
2022-09-12T05:47:40.398Z,99.90
2022-09-12T05:50:11.093Z,99.90
2022-09-12T05:52:40.080Z,99.90
2022-09-12T05:55:10.127Z,99.90
2022-09-12T05:57:39.560Z,99.90
2022-09-12T06:00:12.636Z,99.90
2022-09-12T06:02:41.559Z,99.90
2022-09-12T06:05:10.946Z,99.90
2022-09-12T06:07:39.942Z,99.90
2022-09-12T06:10:12.091Z,99.90
2022-09-12T06:12:41.251Z,99.90
2022-09-12T06:15:12.549Z,99.90
2022-09-12T06:17:41.381Z,99.90
2022-09-12T06:20:11.331Z,99.90
2022-09-12T06:22:40.197Z,99.90
2022-09-12T06:25:10.211Z,99.90
2022-09-12T06:27:39.057Z,99.90
2022-09-12T06:30:09.827Z,99.90
2022-09-12T06:32:40.511Z,99.90
2022-09-12T06:35:10.292Z,99.90
2022-09-12T06:37:39.177Z,99.90
2022-09-12T06:40:10.954Z,99.90
2022-09-12T06:42:39.909Z,99.90
2022-09-12T06:45:11.678Z,99.90
2022-09-12T06:47:42.043Z,99.90
2022-09-12T06:50:11.667Z,99.90
2022-09-12T06:52:40.601Z,99.90
2022-09-12T06:55:10.402Z,99.90
2022-09-12T06:57:41.434Z,99.90
2022-09-12T07:00:12.496Z,99.90
2022-09-12T07:02:42.951Z,99.90
2022-09-12T07:05:13.142Z,99.90
2022-09-12T07:07:42.127Z,99.90
2022-09-12T07:10:12.597Z,99.90
2022-09-12T07:12:41.824Z,99.90
2022-09-12T07:15:12.471Z,99.90
2022-09-12T07:17:42.817Z,99.90
2022-09-12T07:20:12.041Z,99.90
2022-09-12T07:22:41.519Z,99.90
2022-09-12T07:25:11.109Z,99.90
2022-09-12T07:27:40.061Z,99.90
2022-09-12T07:30:09.939Z,99.90
2022-09-12T07:32:38.879Z,99.90
2022-09-12T07:35:10.200Z,99.90
2022-09-12T07:37:39.098Z,99.90
2022-09-12T07:40:09.626Z,99.90
2022-09-12T07:42:38.615Z,99.90
2022-09-12T07:45:08.497Z,99.90
2022-09-12T07:47:37.391Z,99.90
2022-09-12T07:50:08.813Z,99.90
2022-09-12T07:52:37.823Z,99.90
2022-09-12T07:55:07.798Z,99.90
2022-09-12T07:57:36.685Z,99.90
2022-09-12T08:00:08.463Z,99.90
2022-09-12T08:02:41.531Z,99.90
2022-09-12T08:05:13.125Z,99.90
2022-09-12T08:07:42.035Z,99.90
2022-09-12T08:10:11.893Z,99.90
2022-09-12T08:12:40.837Z,99.90
2022-09-12T08:15:11.044Z,99.90
2022-09-12T08:17:40.899Z,99.90
2022-09-12T08:20:12.313Z,99.90
2022-09-12T08:22:41.244Z,99.90
2022-09-12T08:25:11.229Z,99.90
2022-09-12T08:27:40.889Z,99.90
2022-09-12T08:30:12.077Z,99.90
2022-09-12T08:32:41.031Z,99.90
2022-09-12T08:35:12.125Z,99.90
2022-09-12T08:37:41.252Z,99.90
2022-09-12T08:40:19.116Z,99.90
2022-09-12T08:43:04.396Z,99.90
2022-09-12T08:45:40.218Z,99.00
2022-09-12T08:48:13.926Z,91.60
2022-09-12T08:50:49.864Z,99.90
2022-09-12T08:53:26.597Z,96.30
2022-09-12T08:56:01.831Z,94.20
2022-09-12T08:58:35.916Z,83.30
2022-09-12T09:01:16.663Z,71.00
2022-09-12T09:04:28.865Z,63.90
2022-09-12T09:07:34.784Z,61.40
2022-09-12T09:10:22.461Z,53.10
2022-09-12T09:13:04.793Z,47.30
2022-09-12T09:15:49.649Z,39.00
2022-09-12T09:18:25.918Z,37.50
2022-09-12T09:21:01.564Z,28.70
2022-09-12T09:23:37.305Z,27.70
2022-09-12T09:26:16.685Z,22.60
2022-09-12T09:28:52.000Z,22.20
2022-09-12T09:31:24.346Z,23.90
2022-09-12T09:33:56.451Z,25.90
2022-09-12T09:36:42.692Z,26.40
2022-09-12T09:39:27.496Z,22.60
2022-09-12T09:42:18.545Z,21.10
2022-09-12T09:44:49.572Z,20.20
2022-09-12T09:47:20.927Z,12.60
2022-09-12T09:49:50.342Z,8.20
2022-09-12T09:52:28.704Z,7.20
2022-09-12T09:55:02.918Z,6.90
2022-09-12T09:57:44.817Z,2.90
2022-09-12T10:00:33.266Z,1.00
2022-09-12T10:03:30.008Z,1.00
2022-09-12T10:06:03.305Z,1.00
2022-09-12T10:08:35.470Z,1.00
2022-09-12T10:11:18.754Z,1.00
2022-09-12T10:13:57.684Z,1.00
2022-09-12T10:16:29.833Z,1.00
2022-09-12T10:19:00.822Z,1.00
2022-09-12T10:21:41.258Z,1.00
2022-09-12T10:24:27.212Z,1.00
2022-09-12T10:27:07.242Z,1.00
2022-09-12T10:29:44.119Z,1.00
2022-09-12T10:32:17.142Z,1.00
2022-09-12T10:34:47.848Z,1.00
2022-09-12T10:37:26.403Z,1.00
2022-09-12T10:40:00.273Z,1.00
2022-09-12T10:42:52.613Z,1.00
2022-09-12T10:45:29.442Z,1.00
2022-09-12T10:48:05.413Z,1.00
2022-09-12T10:50:42.460Z,1.00
2022-09-12T10:53:23.021Z,1.00
2022-09-12T10:56:09.683Z,1.00
2022-09-12T10:59:03.466Z,1.00
2022-09-12T11:01:42.362Z,1.00
2022-09-12T11:04:29.731Z,1.00
2022-09-12T11:07:30.960Z,1.00
2022-09-12T11:10:15.518Z,1.00
2022-09-12T11:12:59.104Z,1.00
2022-09-12T11:15:56.975Z,1.00
2022-09-12T11:18:55.246Z,1.00
2022-09-12T11:21:52.024Z,1.00
2022-09-12T11:24:47.243Z,1.00
2022-09-12T11:27:37.381Z,1.00
2022-09-12T11:30:12.149Z,1.00
2022-09-12T11:33:13.016Z,1.00
2022-09-12T11:35:54.942Z,1.00
2022-09-12T11:38:53.363Z,1.00
2022-09-12T11:41:31.632Z,1.00
2022-09-12T11:44:12.476Z,1.00
2022-09-12T11:46:46.735Z,1.00
2022-09-12T11:49:35.854Z,1.00
2022-09-12T11:52:14.754Z,1.00
2022-09-12T11:54:53.544Z,1.00
2022-09-12T11:57:34.924Z,1.00
2022-09-12T12:00:08.801Z,1.00
2022-09-12T12:02:49.689Z,1.00
2022-09-12T12:05:26.178Z,1.00
2022-09-12T12:07:59.021Z,1.00
2022-09-12T12:10:38.276Z,1.00
2022-09-12T12:13:17.250Z,1.00
2022-09-12T12:15:52.305Z,1.00
2022-09-12T12:18:26.618Z,1.00
2022-09-12T12:21:17.323Z,1.00
2022-09-12T12:24:14.300Z,1.00
2022-09-12T12:26:57.477Z,1.00
2022-09-12T12:29:45.006Z,1.00
2022-09-12T12:32:27.812Z,1.00
2022-09-12T12:35:42.195Z,1.00
2022-09-12T12:38:31.888Z,1.00
2022-09-12T12:41:45.000Z,1.00
2022-09-12T12:44:52.727Z,1.00
2022-09-12T12:47:25.776Z,1.00
2022-09-12T12:49:59.151Z,1.00
2022-09-12T12:52:33.915Z,1.00
2022-09-12T12:55:06.420Z,1.00
2022-09-12T12:57:52.193Z,1.00
2022-09-12T13:00:35.847Z,1.00
2022-09-12T13:03:23.226Z,1.00
2022-09-12T13:06:01.419Z,1.00
2022-09-12T13:08:33.817Z,1.00
2022-09-12T13:11:11.585Z,1.00
2022-09-12T13:13:50.103Z,1.00
2022-09-12T13:16:33.653Z,1.00
2022-09-12T13:19:07.756Z,1.00
2022-09-12T13:21:36.656Z,1.00
2022-09-12T13:24:17.240Z,1.00
2022-09-12T13:26:49.693Z,1.00
2022-09-12T13:29:22.296Z,1.00
2022-09-12T13:31:57.191Z,1.00
2022-09-12T13:34:30.999Z,1.00
2022-09-12T13:37:48.648Z,1.00
2022-09-12T13:40:41.246Z,1.00
2022-09-12T13:43:17.141Z,1.00
2022-09-12T13:45:48.894Z,1.00
2022-09-12T13:48:23.969Z,1.00
2022-09-12T13:50:57.267Z,1.00
2022-09-12T13:53:32.557Z,1.00
2022-09-12T13:56:03.921Z,1.00
2022-09-12T13:58:36.138Z,1.00
2022-09-12T14:01:13.967Z,1.00
2022-09-12T14:04:07.731Z,1.00
2022-09-12T14:06:49.732Z,1.00
2022-09-12T14:09:26.189Z,1.00
2022-09-12T14:11:55.900Z,1.00
2022-09-12T14:14:36.163Z,1.00
2022-09-12T14:17:21.838Z,1.00
2022-09-12T14:19:54.052Z,1.00
2022-09-12T14:22:27.107Z,1.00
2022-09-12T14:24:58.829Z,1.00
2022-09-12T14:27:34.292Z,1.00
2022-09-12T14:30:10.261Z,1.00
2022-09-12T14:32:39.171Z,1.00
2022-09-12T14:35:20.628Z,1.00
2022-09-12T14:37:52.617Z,1.00
2022-09-12T14:40:24.309Z,1.00
2022-09-12T14:42:58.013Z,1.00
2022-09-12T14:45:34.069Z,1.00
2022-09-12T14:48:04.590Z,1.00
2022-09-12T14:50:37.949Z,1.00
2022-09-12T14:53:22.688Z,1.00
2022-09-12T14:55:54.626Z,1.00
2022-09-12T14:58:29.536Z,1.00
2022-09-12T15:01:22.904Z,1.00
2022-09-12T15:03:56.296Z,1.00
2022-09-12T15:06:31.023Z,1.00
2022-09-12T15:09:09.839Z,1.00
2022-09-12T15:11:38.780Z,1.00
2022-09-12T15:14:14.276Z,1.00
2022-09-12T15:16:44.786Z,1.00
2022-09-12T15:19:14.288Z,1.00
2022-09-12T15:21:43.241Z,1.00
2022-09-12T15:24:12.321Z,1.00
2022-09-12T15:26:41.267Z,1.00
2022-09-12T15:29:10.297Z,1.00
2022-09-12T15:31:41.785Z,1.00
2022-09-12T15:34:12.099Z,1.00
2022-09-12T15:36:41.157Z,1.00
2022-09-12T15:39:12.159Z,1.00
2022-09-12T15:41:41.312Z,1.00
2022-09-12T15:44:14.457Z,1.00
2022-09-12T15:46:43.545Z,1.00
2022-09-12T15:49:15.600Z,1.00
2022-09-12T15:51:45.716Z,1.00
2022-09-12T15:54:17.791Z,1.00
2022-09-12T15:56:46.868Z,1.00
2022-09-12T15:59:16.090Z,1.00
2022-09-12T16:01:45.262Z,1.00
2022-09-12T16:04:24.912Z,1.00
2022-09-12T16:06:55.283Z,1.00
2022-09-12T16:09:28.298Z,1.00
2022-09-12T16:11:57.475Z,1.00
2022-09-12T16:14:26.393Z,1.00
2022-09-12T16:16:58.863Z,1.00
2022-09-12T16:19:29.247Z,1.00
2022-09-12T16:21:58.227Z,1.00
2022-09-12T16:24:27.152Z,1.00
2022-09-12T16:27:01.000Z,1.00
2022-09-12T16:29:30.507Z,1.00
2022-09-12T16:31:59.370Z,1.00
2022-09-12T16:34:29.740Z,1.00
2022-09-12T16:36:58.633Z,1.00
2022-09-12T16:39:27.614Z,1.00
2022-09-12T16:41:56.578Z,1.00
2022-09-12T16:44:25.670Z,1.00
2022-09-12T16:46:54.636Z,1.00
2022-09-12T16:49:23.593Z,1.00
2022-09-12T16:51:54.249Z,1.00
2022-09-12T16:54:23.911Z,1.00
2022-09-12T16:56:53.390Z,1.00
2022-09-12T16:59:22.391Z,1.00
2022-09-12T17:01:52.363Z,1.00
2022-09-12T17:04:23.568Z,1.00
2022-09-12T17:06:54.279Z,1.00
2022-09-12T17:09:23.551Z,1.00
2022-09-12T17:11:53.362Z,1.00
2022-09-12T17:14:23.217Z,1.00
2022-09-12T17:16:52.938Z,1.00
2022-09-12T17:19:26.677Z,1.00
2022-09-12T17:21:58.129Z,1.00
2022-09-12T17:24:27.843Z,1.00
2022-09-12T17:26:57.207Z,1.00
2022-09-12T17:29:26.285Z,1.00
2022-09-12T17:31:56.274Z,1.00
2022-09-12T17:34:25.267Z,1.00
2022-09-12T17:36:54.316Z,1.00
2022-09-12T17:39:24.710Z,1.00
2022-09-12T17:41:54.807Z,1.00
2022-09-12T17:44:24.520Z,1.00
2022-09-12T17:46:54.001Z,1.00
2022-09-12T17:49:23.009Z,1.00
2022-09-12T17:51:52.308Z,1.00
2022-09-12T17:54:22.470Z,1.00
2022-09-12T17:56:52.987Z,1.00
2022-09-12T17:59:24.977Z,1.00
2022-09-12T18:02:22.912Z,1.00
2022-09-12T18:04:51.916Z,1.00
2022-09-12T18:07:22.943Z,1.00
2022-09-12T18:09:53.226Z,1.00
2022-09-12T18:12:23.554Z,1.00
2022-09-12T18:14:52.547Z,1.00
2022-09-12T18:17:21.606Z,1.00
2022-09-12T18:19:54.033Z,1.00
2022-09-12T18:22:23.317Z,1.00
2022-09-12T18:24:52.287Z,1.00
2022-09-12T18:27:22.640Z,1.00
2022-09-12T18:30:10.334Z,1.00
2022-09-12T18:32:41.724Z,4.70
2022-09-12T18:35:11.872Z,3.20
2022-09-12T18:37:42.476Z,3.50
2022-09-12T18:40:12.711Z,4.00
2022-09-12T18:42:43.087Z,3.10
2022-09-12T18:45:12.423Z,9.90
2022-09-12T18:47:42.122Z,17.10
2022-09-12T18:50:11.785Z,25.00
2022-09-12T18:52:40.675Z,27.60
2022-09-12T18:55:11.056Z,27.90
2022-09-12T18:57:41.530Z,30.80
2022-09-12T19:00:14.315Z,36.70
2022-09-12T19:02:43.549Z,46.20
2022-09-12T19:05:13.849Z,52.90
2022-09-12T19:07:42.783Z,62.80
2022-09-12T19:10:12.288Z,93.20
2022-09-12T19:12:41.235Z,99.90
2022-09-12T19:15:12.704Z,99.90
2022-09-12T19:17:41.725Z,99.90
2022-09-12T19:20:11.369Z,99.90
2022-09-12T19:22:40.476Z,99.90
2022-09-12T19:25:10.595Z,99.90
2022-09-12T19:27:39.754Z,99.90
2022-09-12T19:30:10.112Z,99.90
2022-09-12T19:32:40.771Z,99.90
2022-09-12T19:35:13.005Z,99.90
2022-09-12T19:37:41.966Z,99.90
2022-09-12T19:40:11.883Z,99.90
2022-09-12T19:42:41.032Z,99.90
2022-09-12T19:45:10.854Z,99.90
2022-09-12T19:47:41.225Z,99.90
2022-09-12T19:50:10.617Z,99.90
2022-09-12T19:52:39.594Z,99.90
2022-09-12T19:55:10.251Z,99.90
2022-09-12T19:57:39.144Z,99.90
2022-09-12T20:00:09.972Z,99.90
2022-09-12T20:02:40.665Z,99.90
2022-09-12T20:05:10.142Z,99.90
2022-09-12T20:07:39.220Z,99.90
2022-09-12T20:10:08.860Z,99.90
2022-09-12T20:12:38.015Z,99.90
2022-09-12T20:15:08.142Z,99.90
2022-09-12T20:17:37.322Z,99.90
2022-09-12T20:20:09.514Z,99.90
2022-09-12T20:22:40.299Z,99.90
2022-09-12T20:25:10.300Z,1.00
2022-09-12T20:27:39.266Z,1.00
2022-09-12T20:30:10.407Z,1.00
2022-09-12T20:32:39.412Z,99.90
2022-09-12T20:35:11.412Z,99.90
2022-09-12T20:37:41.380Z,99.90
2022-09-12T20:40:11.966Z,99.90
2022-09-12T20:42:41.077Z,99.90
2022-09-12T20:45:10.966Z,99.90
2022-09-12T20:47:39.991Z,99.90
2022-09-12T20:50:11.783Z,99.90
2022-09-12T20:52:40.754Z,99.90
2022-09-12T20:55:11.498Z,99.90
2022-09-12T20:57:40.486Z,99.90
2022-09-12T21:00:12.488Z,99.90
2022-09-12T21:02:41.511Z,99.90
2022-09-12T21:05:12.158Z,99.90
2022-09-12T21:07:41.104Z,99.90
2022-09-12T21:10:10.871Z,99.90
2022-09-12T21:12:39.866Z,99.90
2022-09-12T21:15:10.497Z,99.90
2022-09-12T21:17:39.594Z,99.90
2022-09-12T21:20:11.393Z,99.90
2022-09-12T21:22:41.969Z,99.90
2022-09-12T21:25:15.631Z,1.00
2022-09-12T21:27:44.586Z,99.90
2022-09-12T21:30:15.069Z,99.90
2022-09-12T21:32:43.876Z,1.00
2022-09-12T21:35:12.983Z,1.00
2022-09-12T21:37:43.217Z,1.00
2022-09-12T21:40:12.753Z,99.90
2022-09-12T21:42:41.714Z,99.90
2022-09-12T21:45:11.691Z,99.90
2022-09-12T21:47:40.617Z,99.90
2022-09-12T21:50:10.992Z,99.90
2022-09-12T21:52:40.185Z,99.90
2022-09-12T21:55:11.902Z,1.00
2022-09-12T21:57:41.019Z,1.00
2022-09-12T22:00:14.932Z,99.90
2022-09-12T22:02:44.095Z,1.00
2022-09-12T22:05:13.191Z,99.90
2022-09-12T22:07:42.255Z,19.90
2022-09-12T22:10:12.925Z,99.90
2022-09-12T22:12:46.110Z,99.90
2022-09-12T22:15:39.407Z,63.20
2022-09-12T22:18:04.589Z,37.20
2022-09-12T22:20:33.409Z,99.90
2022-09-12T22:23:24.384Z,99.90
2022-09-12T22:25:58.081Z,99.90
2022-09-12T22:28:27.391Z,19.30
2022-09-12T22:30:56.942Z,17.10
2022-09-12T22:33:25.877Z,99.90
2022-09-12T22:35:54.834Z,99.90
2022-09-12T22:38:26.159Z,1.00
2022-09-12T22:40:57.006Z,1.00
2022-09-12T22:43:25.929Z,1.00
2022-09-12T22:45:54.763Z,1.00
2022-09-12T22:48:23.680Z,42.30
2022-09-12T22:50:52.682Z,1.00
2022-09-12T22:53:21.467Z,10.20
2022-09-12T22:55:50.494Z,1.00
2022-09-12T22:58:20.787Z,99.90
2022-09-12T23:00:51.261Z,99.90
2022-09-12T23:03:21.554Z,99.90
2022-09-12T23:05:50.703Z,99.90
2022-09-12T23:08:20.219Z,99.90
2022-09-12T23:10:49.120Z,99.90
2022-09-12T23:13:19.379Z,99.90
2022-09-12T23:15:48.359Z,1.00
2022-09-12T23:18:17.284Z,1.00
2022-09-12T23:20:46.160Z,1.00
2022-09-12T23:23:15.083Z,1.00
2022-09-12T23:25:43.994Z,1.00
2022-09-12T23:28:15.115Z,1.00
2022-09-12T23:30:45.317Z,1.00
2022-09-12T23:33:15.093Z,1.00
2022-09-12T23:35:44.213Z,99.90
2022-09-12T23:38:14.703Z,99.90
2022-09-12T23:40:44.058Z,99.90
2022-09-12T23:43:12.946Z,99.90
2022-09-12T23:45:41.796Z,99.90
2022-09-12T23:48:12.173Z,99.90
2022-09-12T23:50:41.433Z,99.90
2022-09-12T23:53:10.744Z,99.90
2022-09-12T23:55:41.078Z,99.90
2022-09-12T23:58:10.468Z,99.90
